createdAt,value
2022-11-26T00:02:32.232Z,94.54
2022-11-26T00:05:00.734Z,94.62
2022-11-26T00:07:30.851Z,94.64
2022-11-26T00:10:00.673Z,94.59
2022-11-26T00:12:32.151Z,94.93
2022-11-26T00:15:02.765Z,95.11
2022-11-26T00:17:30.464Z,95.11
2022-11-26T00:19:58.387Z,95.77
2022-11-26T00:22:37.110Z,95.50
2022-11-26T00:25:04.970Z,97.10
2022-11-26T00:27:32.677Z,96.33
2022-11-26T00:30:00.320Z,95.97
2022-11-26T00:32:27.995Z,96.08
2022-11-26T00:34:55.660Z,95.78
2022-11-26T00:37:36.530Z,95.59
2022-11-26T00:40:04.384Z,95.89
2022-11-26T00:42:32.123Z,96.11
2022-11-26T00:44:59.753Z,95.71
2022-11-26T00:47:27.409Z,95.96
2022-11-26T00:49:55.032Z,95.94
2022-11-26T00:52:33.667Z,95.69
2022-11-26T00:55:08.301Z,95.47
2022-11-26T00:57:36.378Z,95.60
2022-11-26T01:00:07.646Z,95.67
2022-11-26T01:02:35.371Z,95.53
2022-11-26T01:05:03.037Z,95.48
2022-11-26T01:07:31.412Z,95.68
2022-11-26T01:09:59.120Z,95.72
2022-11-26T01:12:26.912Z,95.80
2022-11-26T01:14:54.675Z,95.70
2022-11-26T01:17:22.286Z,95.50
2022-11-26T01:19:50.051Z,95.19
2022-11-26T01:22:23.449Z,95.12
2022-11-26T01:24:51.296Z,95.29
2022-11-26T01:27:21.754Z,94.99
2022-11-26T01:29:49.434Z,94.72
2022-11-26T01:32:17.181Z,94.31
2022-11-26T01:34:44.780Z,93.96
2022-11-26T01:37:15.203Z,94.34
2022-11-26T01:39:42.933Z,94.21
2022-11-26T01:42:25.795Z,93.98
2022-11-26T01:44:53.403Z,94.50
2022-11-26T01:47:28.374Z,95.11
2022-11-26T01:50:30.443Z,94.52
2022-11-26T01:53:24.183Z,94.84
2022-11-26T01:56:14.196Z,94.98
2022-11-26T01:58:47.552Z,95.16
2022-11-26T02:01:15.363Z,95.40
2022-11-26T02:03:54.647Z,95.39
2022-11-26T02:06:27.782Z,95.56
2022-11-26T02:08:56.719Z,95.79
2022-11-26T02:11:25.698Z,95.68
2022-11-26T02:13:57.248Z,96.33
2022-11-26T02:16:43.734Z,96.03
2022-11-26T02:19:48.696Z,95.98
2022-11-26T02:22:31.240Z,95.89
2022-11-26T02:25:28.567Z,96.05
2022-11-26T02:28:08.099Z,96.79
2022-11-26T02:30:44.341Z,96.74
2022-11-26T02:33:14.923Z,97.00
2022-11-26T02:35:50.909Z,96.79
2022-11-26T02:38:34.063Z,96.91
2022-11-26T02:41:02.788Z,97.16
2022-11-26T02:43:32.244Z,96.82
2022-11-26T02:46:05.973Z,97.02
2022-11-26T02:48:39.925Z,97.20
2022-11-26T02:51:14.265Z,96.96
2022-11-26T02:53:43.030Z,97.79
2022-11-26T02:56:18.333Z,97.67
2022-11-26T02:58:46.818Z,97.74
2022-11-26T03:01:30.355Z,97.91
2022-11-26T03:04:03.077Z,98.13
2022-11-26T03:06:34.349Z,97.83
2022-11-26T03:09:02.463Z,97.89
2022-11-26T03:11:30.374Z,98.07
2022-11-26T03:13:58.256Z,97.71
2022-11-26T03:16:26.078Z,97.80
2022-11-26T03:18:54.015Z,97.75
2022-11-26T03:21:21.685Z,97.62
2022-11-26T03:23:49.453Z,97.72
2022-11-26T03:26:17.286Z,97.65
2022-11-26T03:28:44.913Z,97.57
2022-11-26T03:31:12.651Z,97.47
2022-11-26T03:33:40.362Z,97.53
2022-11-26T03:36:08.526Z,97.51
2022-11-26T03:38:36.359Z,97.48
2022-11-26T03:41:05.499Z,97.44
2022-11-26T03:43:33.141Z,97.76
2022-11-26T03:46:00.874Z,97.84
2022-11-26T03:48:28.577Z,98.03
2022-11-26T03:50:56.288Z,97.73
2022-11-26T03:53:23.897Z,97.62
2022-11-26T03:55:51.610Z,97.97
2022-11-26T03:58:19.286Z,97.95
2022-11-26T04:00:46.982Z,97.83
2022-11-26T04:03:14.720Z,98.05
2022-11-26T04:05:42.452Z,98.03
2022-11-26T04:08:10.308Z,98.18
2022-11-26T04:10:38.109Z,97.96
2022-11-26T04:13:05.741Z,97.83
2022-11-26T04:15:33.396Z,97.77
2022-11-26T04:18:01.092Z,97.77
2022-11-26T04:20:29.388Z,97.75
2022-11-26T04:22:57.125Z,97.65
2022-11-26T04:25:24.732Z,97.67
2022-11-26T04:27:52.429Z,97.30
2022-11-26T04:30:20.399Z,97.30
2022-11-26T04:32:48.071Z,97.31
2022-11-26T04:35:15.849Z,97.40
2022-11-26T04:37:43.563Z,97.43
2022-11-26T04:40:12.151Z,97.44
2022-11-26T04:42:39.791Z,97.28
2022-11-26T04:45:08.097Z,97.28
2022-11-26T04:47:40.063Z,97.22
2022-11-26T04:50:11.317Z,97.12
2022-11-26T04:52:38.964Z,97.10
2022-11-26T04:55:06.943Z,96.73
2022-11-26T04:57:34.633Z,96.66
2022-11-26T05:00:02.433Z,96.53
2022-11-26T05:02:30.114Z,96.45
2022-11-26T05:04:57.830Z,96.12
2022-11-26T05:07:25.616Z,95.90
2022-11-26T05:09:53.291Z,95.66
2022-11-26T05:12:20.956Z,95.49
2022-11-26T05:14:48.587Z,95.53
2022-11-26T05:17:16.272Z,95.25
2022-11-26T05:19:43.875Z,95.12
2022-11-26T05:22:11.557Z,94.94
2022-11-26T05:24:39.431Z,94.94
2022-11-26T05:27:07.325Z,95.09
2022-11-26T05:29:36.287Z,95.56
2022-11-26T05:32:04.189Z,95.28
2022-11-26T05:34:31.976Z,95.39
2022-11-26T05:36:59.616Z,95.30
2022-11-26T05:39:27.405Z,95.02
2022-11-26T05:41:55.041Z,94.46
2022-11-26T05:44:22.768Z,94.48
2022-11-26T05:46:50.421Z,94.52
2022-11-26T05:49:18.441Z,94.59
2022-11-26T05:51:46.060Z,94.96
2022-11-26T05:54:15.525Z,95.05
2022-11-26T05:56:44.252Z,95.33
2022-11-26T05:59:12.452Z,95.13
2022-11-26T06:01:40.620Z,95.16
2022-11-26T06:04:08.268Z,95.41
2022-11-26T06:06:36.351Z,95.15
2022-11-26T06:09:05.035Z,95.61
2022-11-26T06:11:32.729Z,95.71
2022-11-26T06:14:00.413Z,95.31
2022-11-26T06:16:28.051Z,95.38
2022-11-26T06:18:55.808Z,95.09
2022-11-26T06:21:23.563Z,95.30
2022-11-26T06:23:57.561Z,95.01
2022-11-26T06:26:26.761Z,95.07
2022-11-26T06:28:54.430Z,94.91
2022-11-26T06:31:22.167Z,94.83
2022-11-26T06:33:53.782Z,95.00
2022-11-26T06:36:21.555Z,94.74
2022-11-26T06:38:49.600Z,94.64
2022-11-26T06:41:17.598Z,94.82
2022-11-26T06:43:45.219Z,94.62
2022-11-26T06:46:13.164Z,94.61
2022-11-26T06:48:41.607Z,94.45
2022-11-26T06:51:15.964Z,94.41
2022-11-26T06:53:44.236Z,94.63
2022-11-26T06:56:18.400Z,94.66
2022-11-26T06:58:47.797Z,94.71
2022-11-26T07:01:20.981Z,94.72
2022-11-26T07:03:49.415Z,94.56
2022-11-26T07:06:29.179Z,94.62
2022-11-26T07:08:58.753Z,94.77
2022-11-26T07:11:27.233Z,94.57
2022-11-26T07:13:56.494Z,94.48
2022-11-26T07:16:24.544Z,94.42
2022-11-26T07:18:59.234Z,94.36
2022-11-26T07:21:30.590Z,94.23
2022-11-26T07:23:58.981Z,94.07
2022-11-26T07:26:26.622Z,94.09
2022-11-26T07:28:55.174Z,93.89
2022-11-26T07:31:24.091Z,94.02
2022-11-26T07:33:52.369Z,93.37
2022-11-26T07:36:26.720Z,93.93
2022-11-26T07:38:56.067Z,94.07
2022-11-26T07:41:23.912Z,94.19
2022-11-26T07:43:52.383Z,94.45
2022-11-26T07:46:23.366Z,94.49
2022-11-26T07:48:51.239Z,94.45
2022-11-26T07:51:27.779Z,94.56
2022-11-26T07:53:56.650Z,94.72
2022-11-26T07:56:24.408Z,94.46
2022-11-26T07:58:52.285Z,94.76
2022-11-26T08:01:22.565Z,94.63
2022-11-26T08:03:52.321Z,94.57
2022-11-26T08:06:29.318Z,94.68
2022-11-26T08:08:57.117Z,94.65
2022-11-26T08:11:29.372Z,94.34
2022-11-26T08:14:03.138Z,94.24
2022-11-26T08:16:31.324Z,94.06
2022-11-26T08:19:01.281Z,94.40
2022-11-26T08:21:29.278Z,94.51
2022-11-26T08:23:57.811Z,94.60
2022-11-26T08:26:33.970Z,94.49
2022-11-26T08:29:04.395Z,94.61
2022-11-26T08:31:32.181Z,94.70
2022-11-26T08:34:00.827Z,94.53
2022-11-26T08:36:30.906Z,94.19
2022-11-26T08:38:59.942Z,94.35
2022-11-26T08:41:27.707Z,94.15
2022-11-26T08:44:10.644Z,94.32
2022-11-26T08:46:40.336Z,94.14
2022-11-26T08:49:11.326Z,94.15
2022-11-26T08:51:39.062Z,93.98
2022-11-26T08:54:06.836Z,94.08
2022-11-26T08:56:35.582Z,94.31
2022-11-26T08:59:03.602Z,94.17
2022-11-26T09:01:33.591Z,94.02
2022-11-26T09:04:03.702Z,93.78
2022-11-26T09:06:32.781Z,93.83
2022-11-26T09:09:14.396Z,93.78
2022-11-26T09:11:49.974Z,93.93
2022-11-26T09:14:20.382Z,93.82
2022-11-26T09:16:48.956Z,93.71
2022-11-26T09:19:17.880Z,93.98
2022-11-26T09:21:46.955Z,93.67
2022-11-26T09:24:15.426Z,93.87
2022-11-26T09:26:43.290Z,93.78
2022-11-26T09:29:15.264Z,93.55
2022-11-26T09:32:15.284Z,93.13
2022-11-26T09:34:34.968Z,92.27
2022-11-26T09:37:03.105Z,92.11
2022-11-26T09:39:30.907Z,93.32
2022-11-26T09:42:13.090Z,91.09
2022-11-26T09:45:17.926Z,91.79
2022-11-26T09:47:49.714Z,92.06
2022-11-26T09:50:17.319Z,91.83
2022-11-26T09:53:14.030Z,91.72
2022-11-26T09:55:44.942Z,91.14
2022-11-26T09:58:30.426Z,90.58
2022-11-26T10:01:00.256Z,91.28
2022-11-26T10:03:34.404Z,90.86
2022-11-26T10:06:08.158Z,90.50
2022-11-26T10:09:01.840Z,90.63
2022-11-26T10:11:50.203Z,90.43
2022-11-26T10:14:47.000Z,90.07
2022-11-26T10:17:27.042Z,89.37
2022-11-26T10:20:19.639Z,89.17
2022-11-26T10:22:57.058Z,88.71
2022-11-26T10:25:29.985Z,88.60
2022-11-26T10:28:00.292Z,88.81
2022-11-26T10:30:30.370Z,88.77
2022-11-26T10:33:01.988Z,88.99
2022-11-26T10:35:30.486Z,88.10
2022-11-26T10:37:59.251Z,87.82
2022-11-26T10:40:32.424Z,87.87
2022-11-26T10:43:04.748Z,88.04
2022-11-26T10:45:50.964Z,87.93
2022-11-26T10:48:28.647Z,87.90
2022-11-26T10:51:02.420Z,88.10
2022-11-26T10:53:35.452Z,88.17
2022-11-26T10:56:07.222Z,87.35
2022-11-26T10:58:43.165Z,87.10
2022-11-26T11:01:15.274Z,87.00
2022-11-26T11:04:11.006Z,86.62
2022-11-26T11:06:43.779Z,86.36
2022-11-26T11:09:38.180Z,87.02
2022-11-26T11:12:11.986Z,86.75
2022-11-26T11:14:43.526Z,86.82
2022-11-26T11:17:36.773Z,86.97
2022-11-26T11:20:27.243Z,86.91
2022-11-26T11:23:04.839Z,87.22
2022-11-26T11:25:35.744Z,87.15
2022-11-26T11:28:22.847Z,86.91
2022-11-26T11:31:24.221Z,86.46
2022-11-26T11:33:53.347Z,85.97
2022-11-26T11:36:29.920Z,85.65
2022-11-26T11:39:02.446Z,84.74
2022-11-26T11:41:49.979Z,85.71
2022-11-26T11:44:37.161Z,85.22
2022-11-26T11:47:35.965Z,85.03
2022-11-26T11:50:45.117Z,83.80
2022-11-26T11:53:40.411Z,84.57
2022-11-26T11:56:13.916Z,83.85
2022-11-26T11:59:06.056Z,83.39
2022-11-26T12:02:03.563Z,84.00
2022-11-26T12:04:37.414Z,82.83
2022-11-26T12:07:38.597Z,83.51
2022-11-26T12:10:10.476Z,83.37
2022-11-26T12:12:53.562Z,83.70
2022-11-26T12:15:31.748Z,83.57
2022-11-26T12:18:14.116Z,83.73
2022-11-26T12:20:47.271Z,83.35
2022-11-26T12:23:36.318Z,83.53
2022-11-26T12:26:22.231Z,83.03
2022-11-26T12:28:58.867Z,82.77
2022-11-26T12:31:32.691Z,82.98
2022-11-26T12:34:04.186Z,82.62
2022-11-26T12:36:45.498Z,82.52
2022-11-26T12:39:20.342Z,81.87
2022-11-26T12:41:57.476Z,82.12
2022-11-26T12:44:32.625Z,81.84
2022-11-26T12:47:10.672Z,81.55
2022-11-26T12:49:48.602Z,80.04
2022-11-26T12:52:53.677Z,80.94
2022-11-26T12:55:27.926Z,81.21
2022-11-26T12:58:01.894Z,81.07
2022-11-26T13:00:36.575Z,81.12
2022-11-26T13:03:07.287Z,81.31
2022-11-26T13:06:09.249Z,81.28
2022-11-26T13:08:49.651Z,81.26
2022-11-26T13:11:26.152Z,80.84
2022-11-26T13:14:15.499Z,81.28
2022-11-26T13:16:52.359Z,80.88
2022-11-26T13:19:45.994Z,80.67
2022-11-26T13:22:44.589Z,81.08
2022-11-26T13:25:36.150Z,80.97
2022-11-26T13:28:13.288Z,80.97
2022-11-26T13:31:18.084Z,81.14
2022-11-26T13:34:26.228Z,81.39
2022-11-26T13:37:48.039Z,81.51
2022-11-26T13:40:45.658Z,81.77
2022-11-26T13:43:28.493Z,82.19
2022-11-26T13:46:08.234Z,82.26
2022-11-26T13:48:52.400Z,81.99
2022-11-26T13:51:29.362Z,81.88
2022-11-26T13:54:09.917Z,81.85
2022-11-26T13:56:39.397Z,81.73
2022-11-26T13:59:19.451Z,81.83
2022-11-26T14:01:50.181Z,81.52
2022-11-26T14:04:23.587Z,81.62
2022-11-26T14:07:06.593Z,81.44
2022-11-26T14:09:55.689Z,81.23
2022-11-26T14:13:01.503Z,81.14
2022-11-26T14:15:56.893Z,80.98
2022-11-26T14:18:51.562Z,80.95
2022-11-26T14:21:20.770Z,80.78
2022-11-26T14:23:54.445Z,80.99
2022-11-26T14:26:40.191Z,80.87
2022-11-26T14:29:14.169Z,80.48
2022-11-26T14:31:55.639Z,80.60
2022-11-26T14:34:32.221Z,80.23
2022-11-26T14:37:02.280Z,80.43
2022-11-26T14:39:30.857Z,80.20
2022-11-26T14:42:05.644Z,80.20
2022-11-26T14:44:34.401Z,80.23
2022-11-26T14:47:20.964Z,80.02
2022-11-26T14:49:55.371Z,80.02
2022-11-26T14:52:27.669Z,80.12
2022-11-26T14:54:59.999Z,79.81
2022-11-26T14:57:43.308Z,79.97
2022-11-26T15:00:17.056Z,79.75
2022-11-26T15:02:49.402Z,79.84
2022-11-26T15:05:25.144Z,79.81
2022-11-26T15:08:08.172Z,79.85
2022-11-26T15:10:53.520Z,79.73
2022-11-26T15:13:32.396Z,79.89
2022-11-26T15:16:03.411Z,80.09
2022-11-26T15:18:34.147Z,80.09
2022-11-26T15:21:04.905Z,80.23
2022-11-26T15:23:37.171Z,80.07
2022-11-26T15:26:05.622Z,80.18
2022-11-26T15:28:39.722Z,80.30
2022-11-26T15:31:11.811Z,80.20
2022-11-26T15:33:40.816Z,80.39
2022-11-26T15:36:14.247Z,80.36
2022-11-26T15:39:09.933Z,80.23
2022-11-26T15:41:44.594Z,80.19
2022-11-26T15:44:22.485Z,80.24
2022-11-26T15:46:54.072Z,80.42
2022-11-26T15:49:30.309Z,80.52
2022-11-26T15:52:11.260Z,80.68
2022-11-26T15:55:10.678Z,80.81
2022-11-26T15:57:37.369Z,80.93
2022-11-26T16:00:09.453Z,81.10
2022-11-26T16:02:39.951Z,81.24
2022-11-26T16:05:25.000Z,81.51
2022-11-26T16:08:01.568Z,81.77
2022-11-26T16:10:37.995Z,81.83
2022-11-26T16:13:17.352Z,81.95
2022-11-26T16:16:17.865Z,81.85
2022-11-26T16:19:01.346Z,82.09
2022-11-26T16:21:32.789Z,82.13
2022-11-26T16:24:07.056Z,81.93
2022-11-26T16:26:53.988Z,82.14
2022-11-26T16:29:21.744Z,82.36
2022-11-26T16:31:49.367Z,82.28
2022-11-26T16:34:16.979Z,82.61
2022-11-26T16:36:45.077Z,82.83
2022-11-26T16:39:18.175Z,83.09
2022-11-26T16:41:45.885Z,83.43
2022-11-26T16:44:13.571Z,83.25
2022-11-26T16:46:42.115Z,83.32
2022-11-26T16:49:11.898Z,83.19
2022-11-26T16:51:39.547Z,83.37
2022-11-26T16:54:07.234Z,83.33
2022-11-26T16:56:39.228Z,83.65
2022-11-26T16:59:15.039Z,83.77
2022-11-26T17:01:42.759Z,83.98
2022-11-26T17:04:13.295Z,83.67
2022-11-26T17:06:42.349Z,84.20
2022-11-26T17:09:20.187Z,84.35
2022-11-26T17:11:47.928Z,84.45
2022-11-26T17:14:15.752Z,83.99
2022-11-26T17:16:43.715Z,84.24
2022-11-26T17:19:14.354Z,84.19
2022-11-26T17:21:42.176Z,84.42
2022-11-26T17:24:09.961Z,84.53
2022-11-26T17:26:37.650Z,84.70
2022-11-26T17:29:05.501Z,84.72
2022-11-26T17:31:33.257Z,84.38
2022-11-26T17:34:01.038Z,84.73
2022-11-26T17:36:32.623Z,84.68
2022-11-26T17:39:03.015Z,84.79
2022-11-26T17:41:30.684Z,84.97
2022-11-26T17:43:58.361Z,84.90
2022-11-26T17:46:26.062Z,84.83
2022-11-26T17:48:59.366Z,84.76
2022-11-26T17:51:27.697Z,84.75
2022-11-26T17:53:55.535Z,84.57
2022-11-26T17:56:25.174Z,84.71
2022-11-26T17:58:52.890Z,84.64
2022-11-26T18:01:21.255Z,84.37
2022-11-26T18:03:49.134Z,84.84
2022-11-26T18:06:19.250Z,84.88
2022-11-26T18:08:47.576Z,84.70
2022-11-26T18:11:16.792Z,84.72
2022-11-26T18:13:44.797Z,84.63
2022-11-26T18:16:12.510Z,84.62
2022-11-26T18:18:40.167Z,84.66
2022-11-26T18:21:07.962Z,84.65
2022-11-26T18:23:35.747Z,84.42
2022-11-26T18:26:04.357Z,84.60
2022-11-26T18:28:32.141Z,84.52
2022-11-26T18:31:00.725Z,84.81
2022-11-26T18:33:28.539Z,84.48
2022-11-26T18:35:56.332Z,84.67
2022-11-26T18:38:26.110Z,84.84
2022-11-26T18:41:04.741Z,85.01
2022-11-26T18:43:36.904Z,84.79
2022-11-26T18:46:06.343Z,84.83
2022-11-26T18:48:38.101Z,85.41
2022-11-26T18:51:06.865Z,85.24
2022-11-26T18:53:35.291Z,85.77
2022-11-26T18:56:03.211Z,86.27
2022-11-26T18:58:31.214Z,86.07
2022-11-26T19:00:59.758Z,86.26
2022-11-26T19:03:28.555Z,86.28
2022-11-26T19:05:56.981Z,86.07
2022-11-26T19:08:24.939Z,86.36
2022-11-26T19:10:52.761Z,86.47
2022-11-26T19:13:20.616Z,86.44
2022-11-26T19:15:49.016Z,86.30
2022-11-26T19:18:17.382Z,86.39
2022-11-26T19:20:54.017Z,86.81
2022-11-26T19:23:25.526Z,86.97
2022-11-26T19:25:53.365Z,86.60
2022-11-26T19:28:21.045Z,86.59
2022-11-26T19:31:06.266Z,86.92
2022-11-26T19:33:34.588Z,87.17
2022-11-26T19:36:11.949Z,86.72
2022-11-26T19:38:40.254Z,86.59
2022-11-26T19:41:08.315Z,86.89
2022-11-26T19:43:38.956Z,87.04
2022-11-26T19:46:12.761Z,87.07
2022-11-26T19:48:43.429Z,86.99
2022-11-26T19:51:12.849Z,86.62
2022-11-26T19:53:40.993Z,86.58
2022-11-26T19:56:41.314Z,86.87
2022-11-26T19:59:08.915Z,86.76
2022-11-26T20:01:36.715Z,86.92
2022-11-26T20:04:08.329Z,86.63
2022-11-26T20:06:37.344Z,86.68
2022-11-26T20:09:07.249Z,87.04
2022-11-26T20:11:38.611Z,86.77
2022-11-26T20:14:07.015Z,86.68
2022-11-26T20:16:34.779Z,86.75
2022-11-26T20:19:03.504Z,86.75
2022-11-26T20:21:33.467Z,86.60
2022-11-26T20:24:03.700Z,86.35
2022-11-26T20:26:39.364Z,86.13
2022-11-26T20:29:09.756Z,86.09
2022-11-26T20:31:41.420Z,86.22
2022-11-26T20:34:09.136Z,86.39
2022-11-26T20:36:36.804Z,86.59
2022-11-26T20:39:04.973Z,86.58
2022-11-26T20:41:32.739Z,87.37
2022-11-26T20:44:00.557Z,88.40
2022-11-26T20:46:29.407Z,89.71
2022-11-26T20:48:58.032Z,89.76
2022-11-26T20:51:29.093Z,90.11
2022-11-26T20:54:00.054Z,90.90
2022-11-26T20:56:28.845Z,90.30
2022-11-26T20:58:56.971Z,90.74
2022-11-26T21:01:26.996Z,91.94
2022-11-26T21:03:55.699Z,92.28
2022-11-26T21:06:29.650Z,93.55
2022-11-26T21:09:01.267Z,92.33
2022-11-26T21:11:29.712Z,92.74
2022-11-26T21:14:00.081Z,93.03
2022-11-26T21:16:29.099Z,93.56
2022-11-26T21:18:57.932Z,93.22
2022-11-26T21:21:27.680Z,93.17
2022-11-26T21:23:56.122Z,93.41
2022-11-26T21:26:26.319Z,93.15
2022-11-26T21:28:55.833Z,93.38
2022-11-26T21:31:24.882Z,93.22
2022-11-26T21:33:58.413Z,93.28
2022-11-26T21:36:26.694Z,93.03
2022-11-26T21:38:54.544Z,92.49
2022-11-26T21:41:22.960Z,92.23
2022-11-26T21:43:51.419Z,91.84
2022-11-26T21:46:20.281Z,91.52
2022-11-26T21:48:48.277Z,91.32
2022-11-26T21:51:20.226Z,91.42
2022-11-26T21:53:49.746Z,91.30
2022-11-26T21:56:29.186Z,90.96
2022-11-26T21:58:59.557Z,90.88
2022-11-26T22:01:35.811Z,91.04
2022-11-26T22:04:08.225Z,90.61
2022-11-26T22:06:36.504Z,90.75
2022-11-26T22:09:05.304Z,91.21
2022-11-26T22:11:37.033Z,91.04
2022-11-26T22:14:06.381Z,90.62
2022-11-26T22:16:35.082Z,90.74
2022-11-26T22:19:03.193Z,90.88
2022-11-26T22:21:34.047Z,92.64
2022-11-26T22:24:03.543Z,92.72
2022-11-26T22:26:32.416Z,92.97
2022-11-26T22:29:00.913Z,93.96
2022-11-26T22:31:31.631Z,93.52
2022-11-26T22:34:11.681Z,93.30
2022-11-26T22:36:39.901Z,94.38
2022-11-26T22:39:12.032Z,94.88
2022-11-26T22:41:41.794Z,94.46
2022-11-26T22:44:10.205Z,94.42
2022-11-26T22:46:39.537Z,93.62
2022-11-26T22:49:08.139Z,94.05
2022-11-26T22:51:36.424Z,94.39
2022-11-26T22:54:08.166Z,94.49
2022-11-26T22:56:38.872Z,94.18
2022-11-26T22:59:08.169Z,94.50
2022-11-26T23:01:38.040Z,94.83
2022-11-26T23:04:08.823Z,94.46
2022-11-26T23:06:37.217Z,94.63
2022-11-26T23:09:07.000Z,94.83
2022-11-26T23:11:39.211Z,96.38
2022-11-26T23:14:08.444Z,96.27
2022-11-26T23:16:38.027Z,97.06
2022-11-26T23:19:06.764Z,97.17
2022-11-26T23:21:40.787Z,96.49
2022-11-26T23:24:09.330Z,97.15
2022-11-26T23:26:38.720Z,98.14
2022-11-26T23:29:07.676Z,99.35
2022-11-26T23:31:41.502Z,99.04
2022-11-26T23:34:10.611Z,98.67
2022-11-26T23:36:39.492Z,98.88
2022-11-26T23:39:09.340Z,98.17
2022-11-26T23:41:37.723Z,98.84
2022-11-26T23:44:05.610Z,98.59
2022-11-26T23:46:36.391Z,98.27
2022-11-26T23:49:05.198Z,98.37
2022-11-26T23:51:33.788Z,99.44
2022-11-26T23:54:01.903Z,99.30
2022-11-26T23:56:32.301Z,99.18
2022-11-26T23:59:02.949Z,100.00
